Aérodrome :
LOGIN :

S'inscrire | Disclaimer

   EN    FR    IT 

 










Légende :    VFR   VFR Marginal   IFR   IFR Intensif   IFR Très Intensif
Visi : 
Plafond : 
>= 8 km
>= 3000ft
5 à 8 km
1000 à 3000 ft
1500m à 5 km
500 à 1000 ft
800 à 1500m
200 à 500 ft
< 800m
< 200 ft
Symboles :   Orages  Brouillard  Fortes neiges  Fortes précipitations  Vent > 20 kt
SIGMETs :   Divers  Orages  Givrage  Turbulence  Onde Orograph.  Cendres Volcan.






- Altitude de l'aérodrome : 39 ft
- Code IATA : ANR


EBAW - Anvers / Antwerpen Deurne

DERNIER METAR :
  • 250450Z AUTO 19003KT 160V240 3100 BR BKN005/// OVC006/// 00/M01 Q1022

METARs EXPIRÉS :
  • 250420Z AUTO 19005KT 2900 BR OVC005/// 01/M01 Q1022
  • 250350Z AUTO 18005KT 2800 BR OVC004/// 01/M01 Q1022
  • 250320Z AUTO 19005KT 2900 BR OVC005/// 01/M01 Q1022
  • 250250Z AUTO 20004KT 2500 BR OVC005/// 01/M00 Q1022
  • 250220Z AUTO 15004KT 2900 BR FEW005/// OVC006/// 01/M00 Q1022

TAF TAF EBAW
Valide du 25 à 03h jusqu'au 25 à 12h UTC


250200Z 2503/2512 20003KT 2000 BR BKN003
TEMPO 2503/2509 1400 BCFG
PROB30
TEMPO 2503/2509 0600 FZFG BKN001
BECMG 2509/2511 4000 BR SCT004 BKN007



MET'MAP, la Météo Aéronautique d'un coup d'oeil ! - Copyright ORBIFLY Décembre 2007 - Disclaimer

ORBIFLY MET'MAP TEAM :

Programmation & Développement : Alexandra Zaïnal
Sur une idée originale de : Baudouin d'Aumeries
Assistance à la programmation : Marc-Olivier Méhu
Soutien technique & logistique : Manuel Goepfert

Contact : metmap@orbifly.com




SOURCES & CREDITS :

   NOAA